sensor_id;sensor_type;location;lat;lon;timestamp;P1;durP1;ratioP1;P2;durP2;ratioP2
69569;SDS011;56781;42.292;23.146;2023-05-10T00:01:17;5.10;;;3.00;;
69569;SDS011;56781;42.292;23.146;2023-05-10T00:03:45;5.63;;;3.22;;
69569;SDS011;56781;42.292;23.146;2023-05-10T00:06:12;4.60;;;2.53;;
69569;SDS011;56781;42.292;23.146;2023-05-10T00:08:39;6.35;;;3.00;;
69569;SDS011;56781;42.292;23.146;2023-05-10T00:11:07;4.82;;;2.78;;
69569;SDS011;56781;42.292;23.146;2023-05-10T00:13:34;5.50;;;3.05;;
69569;SDS011;56781;42.292;23.146;2023-05-10T00:16:02;6.03;;;3.10;;
69569;SDS011;56781;42.292;23.146;2023-05-10T00:18:30;5.00;;;2.60;;
69569;SDS011;56781;42.292;23.146;2023-05-10T00:20:57;5.13;;;2.50;;
69569;SDS011;56781;42.292;23.146;2023-05-10T00:23:24;5.97;;;2.75;;
69569;SDS011;56781;42.292;23.146;2023-05-10T00:25:51;5.00;;;2.60;;
69569;SDS011;56781;42.292;23.146;2023-05-10T00:28:19;5.60;;;3.35;;
69569;SDS011;56781;42.292;23.146;2023-05-10T00:30:46;5.30;;;2.90;;
69569;SDS011;56781;42.292;23.146;2023-05-10T00:33:13;5.65;;;3.22;;
69569;SDS011;56781;42.292;23.146;2023-05-10T00:35:40;6.18;;;3.42;;
69569;SDS011;56781;42.292;23.146;2023-05-10T00:38:08;5.57;;;3.30;;
69569;SDS011;56781;42.292;23.146;2023-05-10T00:40:35;6.47;;;3.70;;
69569;SDS011;56781;42.292;23.146;2023-05-10T00:43:03;6.40;;;3.60;;
69569;SDS011;56781;42.292;23.146;2023-05-10T00:45:32;6.75;;;3.65;;
69569;SDS011;56781;42.292;23.146;2023-05-10T00:48:03;7.97;;;3.85;;
69569;SDS011;56781;42.292;23.146;2023-05-10T00:50:31;6.70;;;3.17;;
69569;SDS011;56781;42.292;23.146;2023-05-10T00:53:00;7.10;;;3.65;;
69569;SDS011;56781;42.292;23.146;2023-05-10T00:55:28;5.83;;;3.03;;
69569;SDS011;56781;42.292;23.146;2023-05-10T00:57:56;6.47;;;3.22;;
69569;SDS011;56781;42.292;23.146;2023-05-10T01:00:24;5.97;;;3.25;;
69569;SDS011;56781;42.292;23.146;2023-05-10T01:02:53;5.45;;;3.00;;
69569;SDS011;56781;42.292;23.146;2023-05-10T01:05:21;5.13;;;2.85;;
69569;SDS011;56781;42.292;23.146;2023-05-10T01:07:48;5.07;;;2.63;;
69569;SDS011;56781;42.292;23.146;2023-05-10T01:10:16;5.00;;;2.53;;
69569;SDS011;56781;42.292;23.146;2023-05-10T01:12:44;4.40;;;2.50;;
69569;SDS011;56781;42.292;23.146;2023-05-10T01:15:13;5.20;;;2.50;;
69569;SDS011;56781;42.292;23.146;2023-05-10T01:17:42;4.45;;;2.53;;
69569;SDS011;56781;42.292;23.146;2023-05-10T01:20:11;4.23;;;2.10;;
69569;SDS011;56781;42.292;23.146;2023-05-10T01:39:15;4.85;;;2.20;;
69569;SDS011;56781;42.292;23.146;2023-05-10T01:41:49;4.95;;;2.40;;
69569;SDS011;56781;42.292;23.146;2023-05-10T01:44:25;4.35;;;2.10;;
69569;SDS011;56781;42.292;23.146;2023-05-10T01:47:10;4.10;;;2.30;;
69569;SDS011;56781;42.292;23.146;2023-05-10T01:49:43;4.35;;;2.25;;
69569;SDS011;56781;42.292;23.146;2023-05-10T01:52:15;4.72;;;2.13;;
69569;SDS011;56781;42.292;23.146;2023-05-10T01:54:50;4.88;;;2.42;;
69569;SDS011;56781;42.292;23.146;2023-05-10T01:57:23;4.95;;;2.80;;
69569;SDS011;56781;42.292;23.146;2023-05-10T01:59:54;3.70;;;1.90;;
69569;SDS011;56781;42.292;23.146;2023-05-10T02:02:22;5.10;;;2.47;;
69569;SDS011;56781;42.292;23.146;2023-05-10T02:04:51;5.82;;;3.13;;
69569;SDS011;56781;42.292;23.146;2023-05-10T02:07:21;5.10;;;2.58;;
69569;SDS011;56781;42.292;23.146;2023-05-10T02:09:50;4.85;;;2.42;;
69569;SDS011;56781;42.292;23.146;2023-05-10T02:12:18;4.47;;;2.47;;
69569;SDS011;56781;42.292;23.146;2023-05-10T02:14:47;6.75;;;2.85;;
69569;SDS011;56781;42.292;23.146;2023-05-10T02:17:14;4.80;;;2.40;;
69569;SDS011;56781;42.292;23.146;2023-05-10T02:19:43;4.82;;;2.53;;
69569;SDS011;56781;42.292;23.146;2023-05-10T02:22:12;5.20;;;3.00;;
69569;SDS011;56781;42.292;23.146;2023-05-10T02:24:42;4.77;;;2.57;;
69569;SDS011;56781;42.292;23.146;2023-05-10T02:27:11;5.47;;;3.17;;
69569;SDS011;56781;42.292;23.146;2023-05-10T02:29:40;6.50;;;3.20;;
69569;SDS011;56781;42.292;23.146;2023-05-10T02:32:08;5.95;;;3.05;;
69569;SDS011;56781;42.292;23.146;2023-05-10T02:34:37;8.60;;;3.83;;
69569;SDS011;56781;42.292;23.146;2023-05-10T02:37:05;6.50;;;2.93;;
69569;SDS011;56781;42.292;23.146;2023-05-10T02:39:33;6.85;;;3.97;;
69569;SDS011;56781;42.292;23.146;2023-05-10T02:42:01;8.70;;;3.92;;
69569;SDS011;56781;42.292;23.146;2023-05-10T02:44:29;6.80;;;3.95;;
69569;SDS011;56781;42.292;23.146;2023-05-10T02:46:58;6.90;;;3.90;;
69569;SDS011;56781;42.292;23.146;2023-05-10T02:49:25;6.37;;;3.93;;
69569;SDS011;56781;42.292;23.146;2023-05-10T02:51:55;7.13;;;3.50;;
69569;SDS011;56781;42.292;23.146;2023-05-10T02:54:27;7.82;;;4.32;;
69569;SDS011;56781;42.292;23.146;2023-05-10T02:56:59;6.13;;;3.47;;
69569;SDS011;56781;42.292;23.146;2023-05-10T02:59:30;6.43;;;3.70;;
69569;SDS011;56781;42.292;23.146;2023-05-10T03:01:59;6.57;;;4.07;;
69569;SDS011;56781;42.292;23.146;2023-05-10T03:04:27;5.47;;;3.28;;
69569;SDS011;56781;42.292;23.146;2023-05-10T03:06:54;8.95;;;3.97;;
69569;SDS011;56781;42.292;23.146;2023-05-10T03:09:22;6.30;;;3.55;;
69569;SDS011;56781;42.292;23.146;2023-05-10T03:17:25;7.00;;;3.80;;
69569;SDS011;56781;42.292;23.146;2023-05-10T03:19:57;7.53;;;3.95;;
69569;SDS011;56781;42.292;23.146;2023-05-10T03:22:39;7.05;;;3.50;;
69569;SDS011;56781;42.292;23.146;2023-05-10T03:25:12;6.57;;;3.90;;
69569;SDS011;56781;42.292;23.146;2023-05-10T03:27:42;7.77;;;4.20;;
69569;SDS011;56781;42.292;23.146;2023-05-10T03:30:11;6.93;;;3.95;;
69569;SDS011;56781;42.292;23.146;2023-05-10T03:32:40;7.82;;;4.30;;
69569;SDS011;56781;42.292;23.146;2023-05-10T03:35:07;7.50;;;4.10;;
69569;SDS011;56781;42.292;23.146;2023-05-10T03:37:35;8.90;;;4.20;;
69569;SDS011;56781;42.292;23.146;2023-05-10T03:40:03;6.70;;;3.23;;
69569;SDS011;56781;42.292;23.146;2023-05-10T03:42:30;9.07;;;4.32;;
69569;SDS011;56781;42.292;23.146;2023-05-10T03:44:58;6.82;;;3.60;;
69569;SDS011;56781;42.292;23.146;2023-05-10T03:47:25;8.68;;;4.00;;
69569;SDS011;56781;42.292;23.146;2023-05-10T03:49:52;6.82;;;3.35;;
69569;SDS011;56781;42.292;23.146;2023-05-10T03:52:19;6.43;;;3.43;;
69569;SDS011;56781;42.292;23.146;2023-05-10T03:54:46;7.15;;;3.25;;
69569;SDS011;56781;42.292;23.146;2023-05-10T03:57:13;8.40;;;3.60;;
69569;SDS011;56781;42.292;23.146;2023-05-10T03:59:41;7.75;;;4.22;;
69569;SDS011;56781;42.292;23.146;2023-05-10T04:02:08;8.57;;;4.40;;
69569;SDS011;56781;42.292;23.146;2023-05-10T04:04:35;8.53;;;4.50;;
69569;SDS011;56781;42.292;23.146;2023-05-10T04:07:02;9.05;;;4.63;;
69569;SDS011;56781;42.292;23.146;2023-05-10T04:09:30;8.07;;;4.60;;
69569;SDS011;56781;42.292;23.146;2023-05-10T04:11:58;6.53;;;3.67;;
69569;SDS011;56781;42.292;23.146;2023-05-10T04:14:26;7.75;;;4.15;;
69569;SDS011;56781;42.292;23.146;2023-05-10T04:16:54;8.87;;;5.17;;
69569;SDS011;56781;42.292;23.146;2023-05-10T04:19:21;9.48;;;4.72;;
69569;SDS011;56781;42.292;23.146;2023-05-10T04:21:49;7.78;;;4.40;;
69569;SDS011;56781;42.292;23.146;2023-05-10T04:24:16;7.35;;;4.13;;
69569;SDS011;56781;42.292;23.146;2023-05-10T04:26:43;8.10;;;4.03;;
69569;SDS011;56781;42.292;23.146;2023-05-10T04:29:10;7.17;;;3.93;;
69569;SDS011;56781;42.292;23.146;2023-05-10T04:31:38;6.80;;;3.78;;
69569;SDS011;56781;42.292;23.146;2023-05-10T04:34:05;7.28;;;3.97;;
69569;SDS011;56781;42.292;23.146;2023-05-10T04:36:32;6.68;;;3.92;;
69569;SDS011;56781;42.292;23.146;2023-05-10T04:39:02;9.45;;;4.90;;
69569;SDS011;56781;42.292;23.146;2023-05-10T04:41:30;9.07;;;4.90;;
69569;SDS011;56781;42.292;23.146;2023-05-10T04:43:57;7.20;;;4.03;;
69569;SDS011;56781;42.292;23.146;2023-05-10T04:46:24;7.82;;;4.40;;
69569;SDS011;56781;42.292;23.146;2023-05-10T04:48:51;8.65;;;4.40;;
69569;SDS011;56781;42.292;23.146;2023-05-10T04:51:18;9.85;;;4.85;;
69569;SDS011;56781;42.292;23.146;2023-05-10T04:53:46;10.97;;;4.30;;
69569;SDS011;56781;42.292;23.146;2023-05-10T04:56:30;8.65;;;4.43;;
69569;SDS011;56781;42.292;23.146;2023-05-10T04:58:57;7.88;;;3.90;;
69569;SDS011;56781;42.292;23.146;2023-05-10T05:01:24;13.73;;;6.53;;
69569;SDS011;56781;42.292;23.146;2023-05-10T05:03:51;10.18;;;5.63;;
69569;SDS011;56781;42.292;23.146;2023-05-10T05:06:19;10.20;;;4.90;;
69569;SDS011;56781;42.292;23.146;2023-05-10T05:08:51;12.00;;;6.60;;
69569;SDS011;56781;42.292;23.146;2023-05-10T05:11:18;10.27;;;4.82;;
69569;SDS011;56781;42.292;23.146;2023-05-10T05:13:46;18.75;;;7.45;;
69569;SDS011;56781;42.292;23.146;2023-05-10T05:16:13;9.45;;;4.45;;
69569;SDS011;56781;42.292;23.146;2023-05-10T05:18:40;10.13;;;5.20;;
69569;SDS011;56781;42.292;23.146;2023-05-10T05:21:14;10.73;;;4.68;;
69569;SDS011;56781;42.292;23.146;2023-05-10T05:23:44;8.55;;;3.92;;
69569;SDS011;56781;42.292;23.146;2023-05-10T05:26:11;7.65;;;4.22;;
69569;SDS011;56781;42.292;23.146;2023-05-10T05:28:38;9.70;;;5.10;;
69569;SDS011;56781;42.292;23.146;2023-05-10T05:31:06;7.90;;;4.07;;
69569;SDS011;56781;42.292;23.146;2023-05-10T05:33:36;7.32;;;3.72;;
69569;SDS011;56781;42.292;23.146;2023-05-10T05:36:04;10.13;;;4.78;;
69569;SDS011;56781;42.292;23.146;2023-05-10T05:38:32;8.57;;;4.47;;
69569;SDS011;56781;42.292;23.146;2023-05-10T05:40:59;9.02;;;4.63;;
69569;SDS011;56781;42.292;23.146;2023-05-10T05:43:27;9.60;;;4.70;;
69569;SDS011;56781;42.292;23.146;2023-05-10T05:45:54;9.23;;;5.03;;
69569;SDS011;56781;42.292;23.146;2023-05-10T05:48:21;7.47;;;3.70;;
69569;SDS011;56781;42.292;23.146;2023-05-10T05:50:48;8.32;;;4.40;;
69569;SDS011;56781;42.292;23.146;2023-05-10T05:53:16;8.60;;;4.65;;
69569;SDS011;56781;42.292;23.146;2023-05-10T05:56:01;10.10;;;4.97;;
69569;SDS011;56781;42.292;23.146;2023-05-10T05:58:28;9.85;;;4.80;;
69569;SDS011;56781;42.292;23.146;2023-05-10T06:00:56;9.52;;;4.72;;
69569;SDS011;56781;42.292;23.146;2023-05-10T06:03:23;8.98;;;4.97;;
69569;SDS011;56781;42.292;23.146;2023-05-10T06:05:51;8.55;;;4.53;;
69569;SDS011;56781;42.292;23.146;2023-05-10T06:08:18;7.93;;;4.13;;
69569;SDS011;56781;42.292;23.146;2023-05-10T06:10:45;8.07;;;4.05;;
69569;SDS011;56781;42.292;23.146;2023-05-10T06:13:13;7.60;;;3.80;;
69569;SDS011;56781;42.292;23.146;2023-05-10T06:15:40;9.38;;;3.85;;
69569;SDS011;56781;42.292;23.146;2023-05-10T06:18:07;11.25;;;4.20;;
69569;SDS011;56781;42.292;23.146;2023-05-10T06:20:34;7.87;;;4.20;;
69569;SDS011;56781;42.292;23.146;2023-05-10T06:23:01;7.72;;;3.70;;
69569;SDS011;56781;42.292;23.146;2023-05-10T06:25:29;9.48;;;4.65;;
69569;SDS011;56781;42.292;23.146;2023-05-10T06:27:56;8.73;;;3.97;;
69569;SDS011;56781;42.292;23.146;2023-05-10T06:30:24;7.50;;;4.38;;
69569;SDS011;56781;42.292;23.146;2023-05-10T06:32:55;9.20;;;4.40;;
69569;SDS011;56781;42.292;23.146;2023-05-10T06:35:23;8.57;;;4.53;;
69569;SDS011;56781;42.292;23.146;2023-05-10T06:37:50;9.65;;;4.63;;
69569;SDS011;56781;42.292;23.146;2023-05-10T06:40:18;8.57;;;4.60;;
69569;SDS011;56781;42.292;23.146;2023-05-10T06:42:46;8.40;;;3.70;;
69569;SDS011;56781;42.292;23.146;2023-05-10T06:45:14;7.67;;;4.30;;
69569;SDS011;56781;42.292;23.146;2023-05-10T06:47:42;7.90;;;4.25;;
69569;SDS011;56781;42.292;23.146;2023-05-10T06:50:10;6.78;;;3.35;;
69569;SDS011;56781;42.292;23.146;2023-05-10T06:52:40;8.88;;;4.25;;
69569;SDS011;56781;42.292;23.146;2023-05-10T06:55:07;7.85;;;4.30;;
69569;SDS011;56781;42.292;23.146;2023-05-10T06:57:35;8.47;;;3.70;;
69569;SDS011;56781;42.292;23.146;2023-05-10T07:00:03;6.80;;;3.60;;
69569;SDS011;56781;42.292;23.146;2023-05-10T07:02:31;9.23;;;4.75;;
69569;SDS011;56781;42.292;23.146;2023-05-10T07:04:59;9.45;;;4.82;;
69569;SDS011;56781;42.292;23.146;2023-05-10T07:07:28;8.60;;;3.97;;
69569;SDS011;56781;42.292;23.146;2023-05-10T07:09:56;7.47;;;3.83;;
69569;SDS011;56781;42.292;23.146;2023-05-10T07:12:24;9.68;;;4.68;;
69569;SDS011;56781;42.292;23.146;2023-05-10T07:14:52;7.53;;;4.40;;
69569;SDS011;56781;42.292;23.146;2023-05-10T07:17:19;11.20;;;4.57;;
69569;SDS011;56781;42.292;23.146;2023-05-10T07:19:46;11.25;;;5.28;;
69569;SDS011;56781;42.292;23.146;2023-05-10T07:22:14;11.37;;;5.37;;
69569;SDS011;56781;42.292;23.146;2023-05-10T07:24:43;10.80;;;5.63;;
69569;SDS011;56781;42.292;23.146;2023-05-10T07:27:10;9.88;;;5.28;;
69569;SDS011;56781;42.292;23.146;2023-05-10T07:29:37;8.02;;;4.32;;
69569;SDS011;56781;42.292;23.146;2023-05-10T07:32:05;10.35;;;5.30;;
69569;SDS011;56781;42.292;23.146;2023-05-10T07:34:32;11.20;;;6.30;;
69569;SDS011;56781;42.292;23.146;2023-05-10T07:37:00;9.70;;;5.50;;
69569;SDS011;56781;42.292;23.146;2023-05-10T07:39:27;10.07;;;4.75;;
69569;SDS011;56781;42.292;23.146;2023-05-10T07:41:55;8.90;;;4.80;;
69569;SDS011;56781;42.292;23.146;2023-05-10T07:44:22;9.88;;;4.93;;
69569;SDS011;56781;42.292;23.146;2023-05-10T07:46:49;18.00;;;8.13;;
69569;SDS011;56781;42.292;23.146;2023-05-10T07:49:17;8.35;;;4.65;;
69569;SDS011;56781;42.292;23.146;2023-05-10T07:51:44;10.63;;;6.10;;
69569;SDS011;56781;42.292;23.146;2023-05-10T07:54:11;9.85;;;5.30;;
69569;SDS011;56781;42.292;23.146;2023-05-10T07:56:40;9.80;;;5.35;;
69569;SDS011;56781;42.292;23.146;2023-05-10T07:59:15;9.57;;;4.90;;
69569;SDS011;56781;42.292;23.146;2023-05-10T08:01:43;10.38;;;5.53;;
69569;SDS011;56781;42.292;23.146;2023-05-10T08:04:11;9.55;;;5.20;;
69569;SDS011;56781;42.292;23.146;2023-05-10T08:06:39;9.73;;;5.47;;
69569;SDS011;56781;42.292;23.146;2023-05-10T08:09:08;8.38;;;4.22;;
69569;SDS011;56781;42.292;23.146;2023-05-10T08:11:35;9.50;;;5.30;;
69569;SDS011;56781;42.292;23.146;2023-05-10T08:14:03;10.48;;;5.15;;
69569;SDS011;56781;42.292;23.146;2023-05-10T08:16:30;11.00;;;5.43;;
69569;SDS011;56781;42.292;23.146;2023-05-10T08:18:59;9.57;;;4.95;;
69569;SDS011;56781;42.292;23.146;2023-05-10T08:21:26;10.32;;;5.32;;
69569;SDS011;56781;42.292;23.146;2023-05-10T08:23:53;9.47;;;5.30;;
69569;SDS011;56781;42.292;23.146;2023-05-10T08:26:20;10.52;;;5.38;;
69569;SDS011;56781;42.292;23.146;2023-05-10T08:28:48;9.55;;;4.60;;
69569;SDS011;56781;42.292;23.146;2023-05-10T08:31:15;9.50;;;4.68;;
69569;SDS011;56781;42.292;23.146;2023-05-10T08:33:42;8.98;;;4.93;;
69569;SDS011;56781;42.292;23.146;2023-05-10T08:36:10;8.93;;;4.77;;
69569;SDS011;56781;42.292;23.146;2023-05-10T08:38:37;10.32;;;6.10;;
69569;SDS011;56781;42.292;23.146;2023-05-10T08:41:04;10.45;;;6.25;;
69569;SDS011;56781;42.292;23.146;2023-05-10T08:43:32;10.93;;;5.47;;
69569;SDS011;56781;42.292;23.146;2023-05-10T08:46:02;10.40;;;6.07;;
69569;SDS011;56781;42.292;23.146;2023-05-10T08:48:32;10.37;;;6.03;;
69569;SDS011;56781;42.292;23.146;2023-05-10T08:51:00;9.07;;;5.40;;
69569;SDS011;56781;42.292;23.146;2023-05-10T08:53:30;10.77;;;6.00;;
69569;SDS011;56781;42.292;23.146;2023-05-10T08:56:00;11.15;;;6.57;;
69569;SDS011;56781;42.292;23.146;2023-05-10T08:58:28;10.55;;;5.53;;
69569;SDS011;56781;42.292;23.146;2023-05-10T09:00:56;10.83;;;5.67;;
69569;SDS011;56781;42.292;23.146;2023-05-10T09:03:24;12.40;;;6.82;;
69569;SDS011;56781;42.292;23.146;2023-05-10T09:05:51;10.82;;;6.38;;
69569;SDS011;56781;42.292;23.146;2023-05-10T09:08:18;9.95;;;5.63;;
69569;SDS011;56781;42.292;23.146;2023-05-10T09:10:47;10.90;;;6.20;;
69569;SDS011;56781;42.292;23.146;2023-05-10T09:13:15;8.63;;;5.13;;
69569;SDS011;56781;42.292;23.146;2023-05-10T09:15:44;10.57;;;6.28;;
69569;SDS011;56781;42.292;23.146;2023-05-10T09:18:12;10.20;;;5.38;;
69569;SDS011;56781;42.292;23.146;2023-05-10T09:20:40;12.57;;;6.45;;
69569;SDS011;56781;42.292;23.146;2023-05-10T09:23:07;10.57;;;6.50;;
69569;SDS011;56781;42.292;23.146;2023-05-10T09:25:35;10.50;;;6.37;;
69569;SDS011;56781;42.292;23.146;2023-05-10T09:28:05;11.77;;;6.40;;
69569;SDS011;56781;42.292;23.146;2023-05-10T09:30:34;15.20;;;6.35;;
69569;SDS011;56781;42.292;23.146;2023-05-10T09:33:02;10.45;;;5.72;;
69569;SDS011;56781;42.292;23.146;2023-05-10T09:35:30;16.50;;;9.02;;
69569;SDS011;56781;42.292;23.146;2023-05-10T09:38:02;14.27;;;8.47;;
69569;SDS011;56781;42.292;23.146;2023-05-10T09:40:31;14.32;;;8.13;;
69569;SDS011;56781;42.292;23.146;2023-05-10T09:45:31;13.23;;;8.18;;
69569;SDS011;56781;42.292;23.146;2023-05-10T09:48:03;11.25;;;7.07;;
69569;SDS011;56781;42.292;23.146;2023-05-10T09:50:31;12.53;;;7.93;;
69569;SDS011;56781;42.292;23.146;2023-05-10T09:52:59;11.60;;;6.82;;
69569;SDS011;56781;42.292;23.146;2023-05-10T09:58:02;12.02;;;6.35;;
69569;SDS011;56781;42.292;23.146;2023-05-10T10:00:34;12.27;;;7.40;;
69569;SDS011;56781;42.292;23.146;2023-05-10T10:03:15;11.20;;;7.10;;
69569;SDS011;56781;42.292;23.146;2023-05-10T10:05:47;11.38;;;6.82;;
69569;SDS011;56781;42.292;23.146;2023-05-10T10:08:15;12.18;;;7.40;;
69569;SDS011;56781;42.292;23.146;2023-05-10T10:10:44;18.55;;;10.63;;
69569;SDS011;56781;42.292;23.146;2023-05-10T10:13:13;14.20;;;8.25;;
69569;SDS011;56781;42.292;23.146;2023-05-10T10:15:41;16.53;;;9.23;;
69569;SDS011;56781;42.292;23.146;2023-05-10T10:18:13;15.15;;;9.27;;
69569;SDS011;56781;42.292;23.146;2023-05-10T10:20:44;16.75;;;9.20;;
69569;SDS011;56781;42.292;23.146;2023-05-10T10:23:12;13.02;;;7.68;;
69569;SDS011;56781;42.292;23.146;2023-05-10T10:25:42;14.60;;;7.07;;
69569;SDS011;56781;42.292;23.146;2023-05-10T10:28:15;14.57;;;8.77;;
69569;SDS011;56781;42.292;23.146;2023-05-10T10:30:53;16.85;;;9.68;;
69569;SDS011;56781;42.292;23.146;2023-05-10T10:36:13;13.95;;;8.10;;
69569;SDS011;56781;42.292;23.146;2023-05-10T10:41:34;11.03;;;7.50;;
69569;SDS011;56781;42.292;23.146;2023-05-10T10:46:58;12.15;;;6.72;;
69569;SDS011;56781;42.292;23.146;2023-05-10T10:49:27;9.80;;;6.35;;
69569;SDS011;56781;42.292;23.146;2023-05-10T10:54:58;9.50;;;5.87;;
69569;SDS011;56781;42.292;23.146;2023-05-10T10:57:28;14.20;;;7.50;;
69569;SDS011;56781;42.292;23.146;2023-05-10T11:02:50;12.68;;;7.55;;
69569;SDS011;56781;42.292;23.146;2023-05-10T11:07:54;14.87;;;8.40;;
69569;SDS011;56781;42.292;23.146;2023-05-10T11:10:23;10.23;;;6.50;;
69569;SDS011;56781;42.292;23.146;2023-05-10T11:12:52;12.45;;;6.80;;
69569;SDS011;56781;42.292;23.146;2023-05-10T11:15:19;11.75;;;6.60;;
69569;SDS011;56781;42.292;23.146;2023-05-10T11:17:47;14.20;;;8.40;;
69569;SDS011;56781;42.292;23.146;2023-05-10T11:20:18;14.90;;;8.93;;
69569;SDS011;56781;42.292;23.146;2023-05-10T11:22:51;11.23;;;6.97;;
69569;SDS011;56781;42.292;23.146;2023-05-10T11:25:19;18.88;;;11.50;;
69569;SDS011;56781;42.292;23.146;2023-05-10T11:27:52;20.70;;;11.35;;
69569;SDS011;56781;42.292;23.146;2023-05-10T11:30:20;23.67;;;12.55;;
69569;SDS011;56781;42.292;23.146;2023-05-10T11:32:47;16.63;;;9.13;;
69569;SDS011;56781;42.292;23.146;2023-05-10T11:35:14;26.63;;;13.05;;
69569;SDS011;56781;42.292;23.146;2023-05-10T11:37:42;18.67;;;10.80;;
69569;SDS011;56781;42.292;23.146;2023-05-10T11:40:10;18.15;;;10.52;;
69569;SDS011;56781;42.292;23.146;2023-05-10T11:42:37;19.52;;;10.75;;
69569;SDS011;56781;42.292;23.146;2023-05-10T11:45:05;14.73;;;9.83;;
69569;SDS011;56781;42.292;23.146;2023-05-10T11:47:33;17.33;;;9.32;;
69569;SDS011;56781;42.292;23.146;2023-05-10T11:50:02;15.65;;;8.43;;
69569;SDS011;56781;42.292;23.146;2023-05-10T11:52:29;20.23;;;9.95;;
69569;SDS011;56781;42.292;23.146;2023-05-10T11:55:03;15.82;;;8.38;;
69569;SDS011;56781;42.292;23.146;2023-05-10T11:57:31;18.30;;;10.20;;
69569;SDS011;56781;42.292;23.146;2023-05-10T11:59:58;15.35;;;9.52;;
69569;SDS011;56781;42.292;23.146;2023-05-10T12:02:26;17.52;;;9.00;;
69569;SDS011;56781;42.292;23.146;2023-05-10T12:04:56;17.70;;;9.55;;
69569;SDS011;56781;42.292;23.146;2023-05-10T12:07:25;20.23;;;10.68;;
69569;SDS011;56781;42.292;23.146;2023-05-10T12:10:03;14.37;;;8.50;;
69569;SDS011;56781;42.292;23.146;2023-05-10T12:12:51;17.10;;;8.93;;
69569;SDS011;56781;42.292;23.146;2023-05-10T12:15:20;16.83;;;9.23;;
69569;SDS011;56781;42.292;23.146;2023-05-10T12:17:49;19.98;;;10.90;;
69569;SDS011;56781;42.292;23.146;2023-05-10T12:20:18;19.23;;;9.98;;
69569;SDS011;56781;42.292;23.146;2023-05-10T12:22:53;17.73;;;9.23;;
69569;SDS011;56781;42.292;23.146;2023-05-10T12:25:29;15.95;;;9.38;;
69569;SDS011;56781;42.292;23.146;2023-05-10T12:27:58;14.80;;;8.88;;
69569;SDS011;56781;42.292;23.146;2023-05-10T12:30:29;18.13;;;8.55;;
69569;SDS011;56781;42.292;23.146;2023-05-10T12:33:01;17.70;;;9.07;;
69569;SDS011;56781;42.292;23.146;2023-05-10T12:35:42;20.10;;;11.13;;
69569;SDS011;56781;42.292;23.146;2023-05-10T12:41:07;14.32;;;7.63;;
69569;SDS011;56781;42.292;23.146;2023-05-10T12:43:36;16.48;;;9.40;;
69569;SDS011;56781;42.292;23.146;2023-05-10T12:46:04;15.35;;;8.45;;
69569;SDS011;56781;42.292;23.146;2023-05-10T12:48:39;11.97;;;7.07;;
69569;SDS011;56781;42.292;23.146;2023-05-10T12:51:07;14.52;;;8.38;;
69569;SDS011;56781;42.292;23.146;2023-05-10T12:53:36;14.68;;;8.15;;
69569;SDS011;56781;42.292;23.146;2023-05-10T12:56:03;15.50;;;9.35;;
69569;SDS011;56781;42.292;23.146;2023-05-10T12:58:30;18.92;;;9.73;;
69569;SDS011;56781;42.292;23.146;2023-05-10T13:01:01;17.13;;;10.00;;
69569;SDS011;56781;42.292;23.146;2023-05-10T13:03:29;15.27;;;8.57;;
69569;SDS011;56781;42.292;23.146;2023-05-10T13:05:57;15.85;;;8.48;;
69569;SDS011;56781;42.292;23.146;2023-05-10T13:08:24;15.93;;;9.23;;
69569;SDS011;56781;42.292;23.146;2023-05-10T13:10:51;15.13;;;8.75;;
69569;SDS011;56781;42.292;23.146;2023-05-10T13:13:18;16.27;;;8.97;;
69569;SDS011;56781;42.292;23.146;2023-05-10T13:15:46;13.55;;;7.60;;
69569;SDS011;56781;42.292;23.146;2023-05-10T13:18:13;14.88;;;8.57;;
69569;SDS011;56781;42.292;23.146;2023-05-10T13:20:40;17.30;;;9.20;;
69569;SDS011;56781;42.292;23.146;2023-05-10T13:23:09;16.77;;;9.48;;
69569;SDS011;56781;42.292;23.146;2023-05-10T13:25:37;20.83;;;10.20;;
69569;SDS011;56781;42.292;23.146;2023-05-10T13:28:04;24.63;;;11.85;;
69569;SDS011;56781;42.292;23.146;2023-05-10T13:30:31;15.57;;;8.93;;
69569;SDS011;56781;42.292;23.146;2023-05-10T13:32:59;12.82;;;7.70;;
69569;SDS011;56781;42.292;23.146;2023-05-10T13:35:26;16.38;;;8.25;;
69569;SDS011;56781;42.292;23.146;2023-05-10T13:37:53;14.50;;;8.93;;
69569;SDS011;56781;42.292;23.146;2023-05-10T13:40:23;17.13;;;9.00;;
69569;SDS011;56781;42.292;23.146;2023-05-10T13:42:50;17.02;;;9.45;;
69569;SDS011;56781;42.292;23.146;2023-05-10T13:45:17;16.98;;;8.43;;
69569;SDS011;56781;42.292;23.146;2023-05-10T13:47:45;15.40;;;7.93;;
69569;SDS011;56781;42.292;23.146;2023-05-10T13:50:12;14.90;;;8.23;;
69569;SDS011;56781;42.292;23.146;2023-05-10T13:52:39;13.98;;;8.52;;
69569;SDS011;56781;42.292;23.146;2023-05-10T13:55:07;15.77;;;8.55;;
69569;SDS011;56781;42.292;23.146;2023-05-10T13:57:34;11.93;;;7.35;;
69569;SDS011;56781;42.292;23.146;2023-05-10T14:00:02;12.93;;;7.55;;
69569;SDS011;56781;42.292;23.146;2023-05-10T14:02:29;17.50;;;7.90;;
69569;SDS011;56781;42.292;23.146;2023-05-10T14:04:57;21.08;;;10.18;;
69569;SDS011;56781;42.292;23.146;2023-05-10T14:07:24;17.63;;;8.48;;
69569;SDS011;56781;42.292;23.146;2023-05-10T14:09:51;17.90;;;9.40;;
69569;SDS011;56781;42.292;23.146;2023-05-10T14:12:18;22.25;;;10.68;;
69569;SDS011;56781;42.292;23.146;2023-05-10T14:14:45;16.67;;;9.30;;
69569;SDS011;56781;42.292;23.146;2023-05-10T14:17:12;11.35;;;7.05;;
69569;SDS011;56781;42.292;23.146;2023-05-10T14:19:40;19.52;;;9.60;;
69569;SDS011;56781;42.292;23.146;2023-05-10T14:22:07;15.68;;;8.88;;
69569;SDS011;56781;42.292;23.146;2023-05-10T14:24:34;13.70;;;6.55;;
69569;SDS011;56781;42.292;23.146;2023-05-10T14:27:01;13.07;;;7.27;;
69569;SDS011;56781;42.292;23.146;2023-05-10T14:29:28;13.48;;;7.28;;
69569;SDS011;56781;42.292;23.146;2023-05-10T14:31:56;14.02;;;8.13;;
69569;SDS011;56781;42.292;23.146;2023-05-10T14:34:23;12.00;;;7.25;;
69569;SDS011;56781;42.292;23.146;2023-05-10T14:36:50;15.30;;;7.45;;
69569;SDS011;56781;42.292;23.146;2023-05-10T14:39:17;11.93;;;7.33;;
69569;SDS011;56781;42.292;23.146;2023-05-10T14:41:44;12.95;;;7.60;;
69569;SDS011;56781;42.292;23.146;2023-05-10T14:44:12;17.90;;;8.00;;
69569;SDS011;56781;42.292;23.146;2023-05-10T14:46:39;13.13;;;7.18;;
69569;SDS011;56781;42.292;23.146;2023-05-10T14:49:06;12.70;;;7.70;;
69569;SDS011;56781;42.292;23.146;2023-05-10T14:51:34;15.90;;;8.00;;
69569;SDS011;56781;42.292;23.146;2023-05-10T14:54:03;17.67;;;8.43;;
69569;SDS011;56781;42.292;23.146;2023-05-10T14:56:30;14.95;;;7.65;;
69569;SDS011;56781;42.292;23.146;2023-05-10T14:58:58;17.45;;;9.55;;
69569;SDS011;56781;42.292;23.146;2023-05-10T15:01:27;14.40;;;9.05;;
69569;SDS011;56781;42.292;23.146;2023-05-10T15:03:55;17.43;;;9.60;;
69569;SDS011;56781;42.292;23.146;2023-05-10T15:06:23;11.50;;;7.03;;
69569;SDS011;56781;42.292;23.146;2023-05-10T15:08:56;16.27;;;8.43;;
69569;SDS011;56781;42.292;23.146;2023-05-10T15:11:24;16.02;;;8.80;;
69569;SDS011;56781;42.292;23.146;2023-05-10T15:13:51;15.98;;;8.32;;
69569;SDS011;56781;42.292;23.146;2023-05-10T15:16:18;14.23;;;8.20;;
69569;SDS011;56781;42.292;23.146;2023-05-10T15:18:46;19.33;;;9.32;;
69569;SDS011;56781;42.292;23.146;2023-05-10T15:21:13;25.83;;;10.68;;
69569;SDS011;56781;42.292;23.146;2023-05-10T15:23:40;24.80;;;9.90;;